LEIBDAOI

Guest
Details From LEIB - Ibiza
To DAOI - ECH CHELIFF
Flight Number -
Tags generated
Created
Modified
Stats Distance 161 nm / 299 km
Max Altitude 12,800 ft / 3,901 m
Waypoints 3
Social Downloads 0
Likes 0
Share VATSIM

Download

Looking for another format? Having issues loading an existing format? Contact us
Advertisement - Login to hide

Notes

Basic altitude profile: - Ascent Rate: 2500ft/min - Ascent Speed: 250kts - Cruise Altitude: 12000ft - Cruise Speed: 420kts - Descent Rate: 1500ft/min - Descent Speed: 250kts Options: - Use NATs: yes - Use PACOTS: yes - Use low airways: yes - Use high airways: yes

Route

LEIB LABRO DAOI

ID Type Via Altitude Latitude Longitude Leg Dist Tot Dist Heading (true) Name
O LEIB APT - 0 ft / 0 m 38.87287˚ 1.37304˚ - 0 nm - Ibiza
LABRO FIX - 12,800 ft / 3,901 m 37.27472˚ 1.12389˚ 96 nm 96 nm 187° / 187° -
O DAOI APT - 0 ft / 0 m 36.21266˚ 1.33177˚ 64 nm 161 nm 171° / 171° ECH CHELIFF

Altitude Profile

Advertisement - Login to hide

LEIB

Details ICAO LEIB (IBZ)
Name Ibiza
Region Spain
Timezone Europe/Madrid (UTC+2.0)
Stats Elevation 20 ft / 6 m (AMSL)
Location 38.872871° 1.373045°
Runways 1
Magnetic Variation 0.709° E

METAR

LEIB 210700Z 00000KT 9999 FEW015 SCT030 19/15 Q1012 NOSIG

Decode

TAF

TAF LEIB 210200Z 2103/2203 20005KT 9999 FEW020 SCT040 TX21/2112Z TN14/2106Z BECMG 2110/2112 23012KT BECMG 2118/2120 VRB03KT

Decode

Departure Runways

ID Width Length Bearing (true) Bearing (mag) Surface Threshold Offset Overrun Length
06 148 ft / 45 m 9,153 ft / 2,790 m 61.85° 61.14° Asphalt 0 ft / 0 m 213 ft / 65 m
24 148 ft / 45 m 9,153 ft / 2,790 m 241.86° 241.15° Asphalt 0 ft / 0 m 197 ft / 60 m

DAOI

Details ICAO DAOI (QAS)
Name ECH CHELIFF
Region Algeria
Timezone Africa/Algiers (UTC+1.0)
Stats Elevation 463 ft / 141 m (AMSL)
Location 36.212659° 1.331767°
Runways 1
Magnetic Variation 0.672° E

METAR

DAOI 210700Z 00000KT 6000 FEW020 BKN026 15/14 Q1013

Decode

TAF

TAF DAOI 210500Z 2106/2206 VRB02KT 6000 BKN026 SCT100 PROB30 TEMPO 2106/2109 2000 BR BKN010 BECMG 2110/2113 34010KT BECMG 2120/2123 VRB02KT

Decode

Destination Runways

ID Width Length Bearing (true) Bearing (mag) Surface Threshold Offset Overrun Length
07 98 ft / 30 m 5,397 ft / 1,645 m 66.29° 65.62° Asphalt 0 ft / 0 m 0 ft / 0 m
25 98 ft / 30 m 5,397 ft / 1,645 m 246.30° 245.63° Asphalt 0 ft / 0 m 0 ft / 0 m

Popular Alternatives